METAR Reports - Misc

 

KGRB - Green Bay, Wisconsin, USA
Updated: 06/25/2022 12:53pm
Mostly cloudy
Mostly cloudy
 Wind from SSW
Wind: SSW 10 mph , 17 km/h
Temperature: 77°F , 25°C
Dew Point: 63°F , 17°C
Humidity: 61%
Barometer: 29.97 inHg , 1014.9 hPa
Clouds: Mostly cloudy
Visibility: 10 miles , 16 km
Cloud details: Mostly cloudy 12000 ft
2022/06/25 16:53 KGRB 251653Z 20009KT 10SM BKN120 25/17 A2997 RMK AO2 RAB30E52 SLP145 P0000 T02500167
KMCD - Mackinac Island, Michigan, USA
Updated: 06/25/2022 1:35pm
Mostly cloudy
Mostly cloudy
 Wind from E
Wind: E 3 mph , 6 km/h
Temperature: 72°F , 22°C
Dew Point: 61°F , 16°C
Humidity: 69%
Barometer: 30.00 inHg , 1015.9 hPa
Clouds: Mostly cloudy
Visibility: 10 miles , 16 km
Cloud details: Mostly cloudy 5500 ft
Mostly cloudy 7500 ft
2022/06/25 17:35 KMCD 251735Z AUTO 10003KT 10SM BKN055 BKN075 22/16 A3000 RMK AO2 T02150157
 
K06C - Schaumburg, Illinois, USA
Updated: 06/25/2022 1:35pm

 
2022/06/25 17:35 K06C 251735Z AUTO RMK AO2 PNO
KCLE - Cleveland, OH, USA
Updated: 06/25/2022 1:51pm
Mostly cloudy
Mostly cloudy
 Wind from ESE
Wind: ESE 6 mph , 9 km/h
Temperature: 88°F , 31°C
Dew Point: 55°F , 13°C
Humidity: 33%
Barometer: 30.07 inHg , 1018.3 hPa
Clouds: Mostly cloudy
Visibility: 10 miles , 16 km
Cloud details: Mostly cloudy 25000 ft
2022/06/25 17:51 KCLE 251751Z 12005KT 10SM BKN250 31/13 A3007 RMK AO2 SLP192 T03060133 10306 20206 58003
 
KMMU - Morristown, New Jersey, USA
Updated: 06/25/2022 1:45pm
Few Clouds
Few Clouds
 Wind from NNW
Wind: NNW 8 mph , 13 km/h
Temperature: 88°F , 31°C
Heat Index: 88°F , 31°C
Dew Point: 61°F , 16°C
Humidity: 40%
Barometer: 30.11 inHg , 1019.6 hPa
Clouds: Few Clouds
Visibility: 10 miles , 16 km
Cloud details: Few Clouds 7000 ft
2022/06/25 17:45 KMMU 251745Z 33007KT 10SM FEW070 31/16 A3011
KSDF - Louisville, Kentucky, USA
Updated: 06/25/2022 12:56pm
Mostly cloudy
Mostly cloudy
 Wind from S
Wind: S 3 mph , 6 km/h
Temperature: 88°F , 31°C
Heat Index: 89°F , 32°C
Dew Point: 63°F , 17°C
Humidity: 43%
Barometer: 30.05 inHg , 1017.6 hPa
Clouds: Mostly cloudy
Visibility: 10 miles , 16 km
Cloud details: Few Clouds 5000 ft
Mostly cloudy 18000 ft
Mostly cloudy 25000 ft
2022/06/25 16:56 KSDF 251656Z 17003KT 10SM FEW050 BKN180 BKN250 31/17 A3005 RMK AO2 SLP170 T03110172